sensor_id;sensor_type;location;lat;lon;timestamp;P1;durP1;ratioP1;P2;durP2;ratioP2
26588;SDS011;14235;48.532;8.722;2023-04-15T00:00:36;3.60;;;3.00;;
26588;SDS011;14235;48.532;8.722;2023-04-15T00:03:02;3.60;;;3.07;;
26588;SDS011;14235;48.532;8.722;2023-04-15T00:05:31;4.83;;;2.97;;
26588;SDS011;14235;48.532;8.722;2023-04-15T00:07:57;3.83;;;2.97;;
26588;SDS011;14235;48.532;8.722;2023-04-15T00:10:23;3.83;;;3.00;;
26588;SDS011;14235;48.532;8.722;2023-04-15T00:12:49;4.50;;;3.27;;
26588;SDS011;14235;48.532;8.722;2023-04-15T00:15:16;5.03;;;3.13;;
26588;SDS011;14235;48.532;8.722;2023-04-15T00:17:41;4.60;;;2.93;;
26588;SDS011;14235;48.532;8.722;2023-04-15T00:20:07;5.87;;;3.30;;
26588;SDS011;14235;48.532;8.722;2023-04-15T00:22:33;3.50;;;2.90;;
26588;SDS011;14235;48.532;8.722;2023-04-15T00:24:59;4.33;;;2.73;;
26588;SDS011;14235;48.532;8.722;2023-04-15T00:27:25;3.90;;;3.00;;
26588;SDS011;14235;48.532;8.722;2023-04-15T00:29:50;3.37;;;3.03;;
26588;SDS011;14235;48.532;8.722;2023-04-15T00:32:16;5.90;;;3.10;;
26588;SDS011;14235;48.532;8.722;2023-04-15T00:34:42;6.23;;;3.30;;
26588;SDS011;14235;48.532;8.722;2023-04-15T00:37:08;2.80;;;2.33;;
26588;SDS011;14235;48.532;8.722;2023-04-15T00:39:34;3.03;;;2.80;;
26588;SDS011;14235;48.532;8.722;2023-04-15T00:41:59;4.17;;;3.37;;
26588;SDS011;14235;48.532;8.722;2023-04-15T00:44:26;3.63;;;2.77;;
26588;SDS011;14235;48.532;8.722;2023-04-15T00:46:52;4.50;;;2.77;;
26588;SDS011;14235;48.532;8.722;2023-04-15T00:49:18;3.77;;;3.33;;
26588;SDS011;14235;48.532;8.722;2023-04-15T00:51:44;3.10;;;2.80;;
26588;SDS011;14235;48.532;8.722;2023-04-15T00:54:09;3.33;;;2.97;;
26588;SDS011;14235;48.532;8.722;2023-04-15T00:56:36;3.63;;;3.03;;
26588;SDS011;14235;48.532;8.722;2023-04-15T00:59:04;3.27;;;3.07;;
26588;SDS011;14235;48.532;8.722;2023-04-15T01:01:33;4.23;;;2.80;;
26588;SDS011;14235;48.532;8.722;2023-04-15T01:04:00;3.07;;;2.60;;
26588;SDS011;14235;48.532;8.722;2023-04-15T01:06:27;3.73;;;2.70;;
26588;SDS011;14235;48.532;8.722;2023-04-15T01:08:53;3.20;;;2.60;;
26588;SDS011;14235;48.532;8.722;2023-04-15T01:11:19;4.40;;;2.60;;
26588;SDS011;14235;48.532;8.722;2023-04-15T01:13:46;4.60;;;2.73;;
26588;SDS011;14235;48.532;8.722;2023-04-15T01:16:12;4.00;;;3.13;;
26588;SDS011;14235;48.532;8.722;2023-04-15T01:18:38;3.73;;;2.73;;
26588;SDS011;14235;48.532;8.722;2023-04-15T01:21:04;3.87;;;2.63;;
26588;SDS011;14235;48.532;8.722;2023-04-15T01:23:31;3.90;;;3.17;;
26588;SDS011;14235;48.532;8.722;2023-04-15T01:25:56;4.40;;;2.67;;
26588;SDS011;14235;48.532;8.722;2023-04-15T01:28:23;2.80;;;2.60;;
26588;SDS011;14235;48.532;8.722;2023-04-15T01:30:50;3.10;;;2.77;;
26588;SDS011;14235;48.532;8.722;2023-04-15T01:33:39;2.80;;;2.50;;
26588;SDS011;14235;48.532;8.722;2023-04-15T01:36:06;3.07;;;2.53;;
26588;SDS011;14235;48.532;8.722;2023-04-15T01:38:34;4.00;;;2.77;;
26588;SDS011;14235;48.532;8.722;2023-04-15T01:41:00;3.93;;;2.90;;
26588;SDS011;14235;48.532;8.722;2023-04-15T01:43:28;5.20;;;2.90;;
26588;SDS011;14235;48.532;8.722;2023-04-15T01:45:53;3.70;;;2.90;;
26588;SDS011;14235;48.532;8.722;2023-04-15T01:48:20;4.30;;;3.03;;
26588;SDS011;14235;48.532;8.722;2023-04-15T01:50:46;3.83;;;2.80;;
26588;SDS011;14235;48.532;8.722;2023-04-15T01:53:11;3.43;;;2.77;;
26588;SDS011;14235;48.532;8.722;2023-04-15T01:55:37;3.40;;;2.83;;
26588;SDS011;14235;48.532;8.722;2023-04-15T01:58:03;3.43;;;2.87;;
26588;SDS011;14235;48.532;8.722;2023-04-15T02:00:29;4.17;;;2.97;;
26588;SDS011;14235;48.532;8.722;2023-04-15T02:02:56;5.40;;;2.90;;
26588;SDS011;14235;48.532;8.722;2023-04-15T02:05:23;4.47;;;2.87;;
26588;SDS011;14235;48.532;8.722;2023-04-15T02:07:49;2.90;;;2.50;;
26588;SDS011;14235;48.532;8.722;2023-04-15T02:10:14;3.43;;;2.57;;
26588;SDS011;14235;48.532;8.722;2023-04-15T02:12:40;3.77;;;2.77;;
26588;SDS011;14235;48.532;8.722;2023-04-15T02:15:06;4.73;;;3.87;;
26588;SDS011;14235;48.532;8.722;2023-04-15T02:17:33;4.53;;;3.40;;
26588;SDS011;14235;48.532;8.722;2023-04-15T02:19:59;4.57;;;3.53;;
26588;SDS011;14235;48.532;8.722;2023-04-15T02:22:25;3.00;;;2.70;;
26588;SDS011;14235;48.532;8.722;2023-04-15T02:24:51;5.17;;;3.10;;
26588;SDS011;14235;48.532;8.722;2023-04-15T02:27:17;4.60;;;2.83;;
26588;SDS011;14235;48.532;8.722;2023-04-15T02:29:43;4.53;;;3.03;;
26588;SDS011;14235;48.532;8.722;2023-04-15T02:32:10;3.30;;;2.80;;
26588;SDS011;14235;48.532;8.722;2023-04-15T02:34:39;3.20;;;2.73;;
26588;SDS011;14235;48.532;8.722;2023-04-15T02:37:07;6.47;;;3.00;;
26588;SDS011;14235;48.532;8.722;2023-04-15T02:39:33;5.17;;;2.77;;
26588;SDS011;14235;48.532;8.722;2023-04-15T02:41:58;2.90;;;2.60;;
26588;SDS011;14235;48.532;8.722;2023-04-15T02:44:25;4.97;;;2.87;;
26588;SDS011;14235;48.532;8.722;2023-04-15T02:46:51;3.70;;;2.67;;
26588;SDS011;14235;48.532;8.722;2023-04-15T02:49:18;2.83;;;2.63;;
26588;SDS011;14235;48.532;8.722;2023-04-15T02:51:44;2.93;;;2.60;;
26588;SDS011;14235;48.532;8.722;2023-04-15T02:54:20;4.13;;;2.57;;
26588;SDS011;14235;48.532;8.722;2023-04-15T02:56:49;3.27;;;2.73;;
26588;SDS011;14235;48.532;8.722;2023-04-15T02:59:16;4.70;;;2.87;;
26588;SDS011;14235;48.532;8.722;2023-04-15T03:01:41;3.40;;;2.53;;
26588;SDS011;14235;48.532;8.722;2023-04-15T03:04:07;4.57;;;2.90;;
26588;SDS011;14235;48.532;8.722;2023-04-15T03:06:33;4.00;;;2.77;;
26588;SDS011;14235;48.532;8.722;2023-04-15T03:08:59;3.03;;;2.57;;
26588;SDS011;14235;48.532;8.722;2023-04-15T03:11:26;3.37;;;2.40;;
26588;SDS011;14235;48.532;8.722;2023-04-15T03:13:53;3.47;;;2.43;;
26588;SDS011;14235;48.532;8.722;2023-04-15T03:16:18;3.20;;;2.70;;
26588;SDS011;14235;48.532;8.722;2023-04-15T03:18:44;4.30;;;2.10;;
26588;SDS011;14235;48.532;8.722;2023-04-15T03:21:10;2.87;;;2.57;;
26588;SDS011;14235;48.532;8.722;2023-04-15T03:23:35;4.47;;;2.70;;
26588;SDS011;14235;48.532;8.722;2023-04-15T03:26:01;3.03;;;2.77;;
26588;SDS011;14235;48.532;8.722;2023-04-15T03:28:27;3.40;;;3.10;;
26588;SDS011;14235;48.532;8.722;2023-04-15T03:30:54;3.50;;;2.43;;
26588;SDS011;14235;48.532;8.722;2023-04-15T03:33:19;2.67;;;2.47;;
26588;SDS011;14235;48.532;8.722;2023-04-15T03:35:45;3.57;;;2.50;;
26588;SDS011;14235;48.532;8.722;2023-04-15T03:38:10;3.37;;;2.50;;
26588;SDS011;14235;48.532;8.722;2023-04-15T03:40:37;4.27;;;2.53;;
26588;SDS011;14235;48.532;8.722;2023-04-15T03:43:05;4.17;;;2.50;;
26588;SDS011;14235;48.532;8.722;2023-04-15T03:45:30;3.10;;;2.10;;
26588;SDS011;14235;48.532;8.722;2023-04-15T03:47:56;2.90;;;2.47;;
26588;SDS011;14235;48.532;8.722;2023-04-15T03:50:22;2.93;;;2.50;;
26588;SDS011;14235;48.532;8.722;2023-04-15T03:52:47;2.83;;;2.63;;
26588;SDS011;14235;48.532;8.722;2023-04-15T03:55:13;2.97;;;2.50;;
26588;SDS011;14235;48.532;8.722;2023-04-15T03:57:39;3.87;;;2.53;;
26588;SDS011;14235;48.532;8.722;2023-04-15T04:00:06;2.80;;;2.50;;
26588;SDS011;14235;48.532;8.722;2023-04-15T04:02:35;2.90;;;2.70;;
26588;SDS011;14235;48.532;8.722;2023-04-15T04:05:01;2.80;;;2.33;;
26588;SDS011;14235;48.532;8.722;2023-04-15T04:07:27;2.57;;;2.37;;
26588;SDS011;14235;48.532;8.722;2023-04-15T04:09:52;2.87;;;2.63;;
26588;SDS011;14235;48.532;8.722;2023-04-15T04:12:18;4.70;;;2.70;;
26588;SDS011;14235;48.532;8.722;2023-04-15T04:14:44;3.23;;;2.40;;
26588;SDS011;14235;48.532;8.722;2023-04-15T04:17:09;3.87;;;2.33;;
26588;SDS011;14235;48.532;8.722;2023-04-15T04:19:35;3.10;;;2.70;;
26588;SDS011;14235;48.532;8.722;2023-04-15T04:22:01;3.57;;;2.67;;
26588;SDS011;14235;48.532;8.722;2023-04-15T04:24:26;2.93;;;2.63;;
26588;SDS011;14235;48.532;8.722;2023-04-15T04:26:52;3.00;;;2.60;;
26588;SDS011;14235;48.532;8.722;2023-04-15T04:29:18;3.97;;;2.67;;
26588;SDS011;14235;48.532;8.722;2023-04-15T04:31:43;6.40;;;2.77;;
26588;SDS011;14235;48.532;8.722;2023-04-15T04:34:09;4.13;;;2.97;;
26588;SDS011;14235;48.532;8.722;2023-04-15T04:36:35;8.97;;;3.33;;
26588;SDS011;14235;48.532;8.722;2023-04-15T04:39:01;3.70;;;2.77;;
26588;SDS011;14235;48.532;8.722;2023-04-15T04:41:26;5.00;;;2.73;;
26588;SDS011;14235;48.532;8.722;2023-04-15T04:43:52;3.67;;;2.50;;
26588;SDS011;14235;48.532;8.722;2023-04-15T04:46:18;3.63;;;3.23;;
26588;SDS011;14235;48.532;8.722;2023-04-15T04:48:43;6.03;;;4.93;;
26588;SDS011;14235;48.532;8.722;2023-04-15T04:51:09;6.17;;;5.17;;
26588;SDS011;14235;48.532;8.722;2023-04-15T04:53:35;4.87;;;3.37;;
26588;SDS011;14235;48.532;8.722;2023-04-15T04:56:01;4.00;;;2.77;;
26588;SDS011;14235;48.532;8.722;2023-04-15T04:58:27;5.80;;;2.90;;
26588;SDS011;14235;48.532;8.722;2023-04-15T05:00:53;2.73;;;2.53;;
26588;SDS011;14235;48.532;8.722;2023-04-15T05:03:18;3.53;;;2.80;;
26588;SDS011;14235;48.532;8.722;2023-04-15T05:05:45;4.63;;;2.97;;
26588;SDS011;14235;48.532;8.722;2023-04-15T05:08:10;3.53;;;3.20;;
26588;SDS011;14235;48.532;8.722;2023-04-15T05:10:36;2.80;;;2.60;;
26588;SDS011;14235;48.532;8.722;2023-04-15T05:13:02;3.40;;;2.40;;
26588;SDS011;14235;48.532;8.722;2023-04-15T05:15:27;3.73;;;2.67;;
26588;SDS011;14235;48.532;8.722;2023-04-15T05:17:53;3.70;;;2.50;;
26588;SDS011;14235;48.532;8.722;2023-04-15T05:20:19;4.07;;;2.47;;
26588;SDS011;14235;48.532;8.722;2023-04-15T05:22:44;4.53;;;2.57;;
26588;SDS011;14235;48.532;8.722;2023-04-15T05:25:10;4.30;;;2.50;;
26588;SDS011;14235;48.532;8.722;2023-04-15T05:27:35;3.53;;;2.33;;
26588;SDS011;14235;48.532;8.722;2023-04-15T05:30:01;3.70;;;2.50;;
26588;SDS011;14235;48.532;8.722;2023-04-15T05:32:27;5.13;;;3.03;;
26588;SDS011;14235;48.532;8.722;2023-04-15T05:34:52;3.30;;;3.00;;
26588;SDS011;14235;48.532;8.722;2023-04-15T05:37:18;3.00;;;2.33;;
26588;SDS011;14235;48.532;8.722;2023-04-15T05:39:45;2.30;;;2.13;;
26588;SDS011;14235;48.532;8.722;2023-04-15T05:42:10;4.27;;;2.70;;
26588;SDS011;14235;48.532;8.722;2023-04-15T05:44:36;2.73;;;2.50;;
26588;SDS011;14235;48.532;8.722;2023-04-15T05:47:02;2.60;;;2.40;;
26588;SDS011;14235;48.532;8.722;2023-04-15T05:49:27;2.70;;;2.50;;
26588;SDS011;14235;48.532;8.722;2023-04-15T05:51:53;4.80;;;2.47;;
26588;SDS011;14235;48.532;8.722;2023-04-15T05:54:19;3.47;;;2.57;;
26588;SDS011;14235;48.532;8.722;2023-04-15T05:56:47;2.50;;;2.30;;
26588;SDS011;14235;48.532;8.722;2023-04-15T05:59:12;3.53;;;2.70;;
26588;SDS011;14235;48.532;8.722;2023-04-15T06:01:38;2.67;;;2.47;;
26588;SDS011;14235;48.532;8.722;2023-04-15T06:04:04;2.73;;;2.53;;
26588;SDS011;14235;48.532;8.722;2023-04-15T06:06:30;3.40;;;2.47;;
26588;SDS011;14235;48.532;8.722;2023-04-15T06:08:56;3.33;;;2.50;;
26588;SDS011;14235;48.532;8.722;2023-04-15T06:11:22;2.90;;;2.30;;
26588;SDS011;14235;48.532;8.722;2023-04-15T06:13:48;2.93;;;2.27;;
26588;SDS011;14235;48.532;8.722;2023-04-15T06:16:13;4.07;;;2.67;;
26588;SDS011;14235;48.532;8.722;2023-04-15T06:18:39;2.60;;;2.20;;
26588;SDS011;14235;48.532;8.722;2023-04-15T06:21:04;3.80;;;2.30;;
26588;SDS011;14235;48.532;8.722;2023-04-15T06:23:32;5.57;;;2.50;;
26588;SDS011;14235;48.532;8.722;2023-04-15T06:26:00;2.60;;;2.40;;
26588;SDS011;14235;48.532;8.722;2023-04-15T06:28:26;3.33;;;2.53;;
26588;SDS011;14235;48.532;8.722;2023-04-15T06:30:51;7.90;;;3.20;;
26588;SDS011;14235;48.532;8.722;2023-04-15T06:33:17;9.77;;;3.00;;
26588;SDS011;14235;48.532;8.722;2023-04-15T06:35:43;5.80;;;2.70;;
26588;SDS011;14235;48.532;8.722;2023-04-15T06:38:09;4.03;;;2.60;;
26588;SDS011;14235;48.532;8.722;2023-04-15T06:40:34;4.33;;;2.77;;
26588;SDS011;14235;48.532;8.722;2023-04-15T06:43:00;4.97;;;2.77;;
26588;SDS011;14235;48.532;8.722;2023-04-15T06:45:26;3.93;;;2.83;;
26588;SDS011;14235;48.532;8.722;2023-04-15T06:47:51;3.17;;;2.53;;
26588;SDS011;14235;48.532;8.722;2023-04-15T06:50:17;2.50;;;2.30;;
26588;SDS011;14235;48.532;8.722;2023-04-15T06:52:43;3.60;;;2.87;;
26588;SDS011;14235;48.532;8.722;2023-04-15T06:55:08;3.83;;;2.60;;
26588;SDS011;14235;48.532;8.722;2023-04-15T06:57:34;2.70;;;2.50;;
26588;SDS011;14235;48.532;8.722;2023-04-15T07:00:00;2.63;;;2.43;;
26588;SDS011;14235;48.532;8.722;2023-04-15T07:02:25;4.30;;;3.10;;
26588;SDS011;14235;48.532;8.722;2023-04-15T07:04:51;4.03;;;2.70;;
26588;SDS011;14235;48.532;8.722;2023-04-15T07:07:17;3.40;;;2.47;;
26588;SDS011;14235;48.532;8.722;2023-04-15T07:09:42;3.03;;;2.30;;
26588;SDS011;14235;48.532;8.722;2023-04-15T07:12:08;3.10;;;2.80;;
26588;SDS011;14235;48.532;8.722;2023-04-15T07:14:34;5.43;;;3.00;;
26588;SDS011;14235;48.532;8.722;2023-04-15T07:17:00;2.70;;;2.40;;
26588;SDS011;14235;48.532;8.722;2023-04-15T07:19:26;2.67;;;2.30;;
26588;SDS011;14235;48.532;8.722;2023-04-15T07:21:51;5.83;;;2.80;;
26588;SDS011;14235;48.532;8.722;2023-04-15T07:24:17;3.77;;;2.43;;
26588;SDS011;14235;48.532;8.722;2023-04-15T07:26:44;2.90;;;2.60;;
26588;SDS011;14235;48.532;8.722;2023-04-15T07:29:10;3.10;;;2.37;;
26588;SDS011;14235;48.532;8.722;2023-04-15T07:31:36;3.00;;;2.50;;
26588;SDS011;14235;48.532;8.722;2023-04-15T07:34:02;3.80;;;2.80;;
26588;SDS011;14235;48.532;8.722;2023-04-15T07:36:29;4.67;;;3.13;;
26588;SDS011;14235;48.532;8.722;2023-04-15T07:38:55;6.90;;;3.50;;
26588;SDS011;14235;48.532;8.722;2023-04-15T07:41:21;3.67;;;2.63;;
26588;SDS011;14235;48.532;8.722;2023-04-15T07:43:46;6.03;;;3.05;;
26588;SDS011;14235;48.532;8.722;2023-04-15T07:46:12;4.72;;;3.10;;
26588;SDS011;14235;48.532;8.722;2023-04-15T07:48:38;4.18;;;3.00;;
26588;SDS011;14235;48.532;8.722;2023-04-15T07:51:04;3.00;;;2.72;;
26588;SDS011;14235;48.532;8.722;2023-04-15T07:53:30;7.38;;;4.40;;
26588;SDS011;14235;48.532;8.722;2023-04-15T07:55:57;9.90;;;6.10;;
26588;SDS011;14235;48.532;8.722;2023-04-15T07:58:23;5.32;;;3.35;;
26588;SDS011;14235;48.532;8.722;2023-04-15T08:00:48;4.75;;;3.20;;
26588;SDS011;14235;48.532;8.722;2023-04-15T08:03:15;6.60;;;2.67;;
26588;SDS011;14235;48.532;8.722;2023-04-15T08:05:41;3.63;;;3.17;;
26588;SDS011;14235;48.532;8.722;2023-04-15T08:08:06;4.75;;;3.05;;
26588;SDS011;14235;48.532;8.722;2023-04-15T08:10:32;5.07;;;2.67;;
26588;SDS011;14235;48.532;8.722;2023-04-15T08:12:58;3.92;;;2.90;;
26588;SDS011;14235;48.532;8.722;2023-04-15T08:15:24;4.32;;;2.58;;
26588;SDS011;14235;48.532;8.722;2023-04-15T08:17:50;6.25;;;2.60;;
26588;SDS011;14235;48.532;8.722;2023-04-15T08:20:16;5.20;;;2.50;;
26588;SDS011;14235;48.532;8.722;2023-04-15T08:22:41;3.92;;;2.67;;
26588;SDS011;14235;48.532;8.722;2023-04-15T08:25:07;5.50;;;2.42;;
26588;SDS011;14235;48.532;8.722;2023-04-15T08:27:34;4.68;;;2.58;;
26588;SDS011;14235;48.532;8.722;2023-04-15T08:30:00;2.80;;;2.42;;
26588;SDS011;14235;48.532;8.722;2023-04-15T08:32:25;5.55;;;3.30;;
26588;SDS011;14235;48.532;8.722;2023-04-15T08:34:51;3.80;;;2.95;;
26588;SDS011;14235;48.532;8.722;2023-04-15T08:37:17;5.78;;;2.78;;
26588;SDS011;14235;48.532;8.722;2023-04-15T08:39:43;4.78;;;3.47;;
26588;SDS011;14235;48.532;8.722;2023-04-15T08:42:15;3.22;;;2.90;;
26588;SDS011;14235;48.532;8.722;2023-04-15T08:44:41;2.97;;;2.60;;
26588;SDS011;14235;48.532;8.722;2023-04-15T08:47:08;5.95;;;3.03;;
26588;SDS011;14235;48.532;8.722;2023-04-15T08:49:39;5.25;;;2.80;;
26588;SDS011;14235;48.532;8.722;2023-04-15T08:52:06;5.18;;;3.13;;
26588;SDS011;14235;48.532;8.722;2023-04-15T08:54:33;5.70;;;3.00;;
26588;SDS011;14235;48.532;8.722;2023-04-15T08:56:59;6.93;;;2.80;;
26588;SDS011;14235;48.532;8.722;2023-04-15T08:59:26;6.13;;;2.70;;
26588;SDS011;14235;48.532;8.722;2023-04-15T09:01:54;5.97;;;2.88;;
26588;SDS011;14235;48.532;8.722;2023-04-15T09:04:21;4.78;;;2.60;;
26588;SDS011;14235;48.532;8.722;2023-04-15T09:06:46;4.72;;;2.97;;
26588;SDS011;14235;48.532;8.722;2023-04-15T09:09:12;4.32;;;2.58;;
26588;SDS011;14235;48.532;8.722;2023-04-15T09:11:38;3.95;;;2.70;;
26588;SDS011;14235;48.532;8.722;2023-04-15T09:14:04;4.72;;;2.83;;
26588;SDS011;14235;48.532;8.722;2023-04-15T09:16:30;8.85;;;2.83;;
26588;SDS011;14235;48.532;8.722;2023-04-15T09:18:55;5.03;;;2.90;;
26588;SDS011;14235;48.532;8.722;2023-04-15T09:21:21;4.88;;;2.50;;
26588;SDS011;14235;48.532;8.722;2023-04-15T09:26:33;5.65;;;2.78;;
26588;SDS011;14235;48.532;8.722;2023-04-15T09:29:10;4.60;;;2.40;;
26588;SDS011;14235;48.532;8.722;2023-04-15T09:31:39;5.80;;;2.63;;
26588;SDS011;14235;48.532;8.722;2023-04-15T09:34:05;12.85;;;2.53;;
26588;SDS011;14235;48.532;8.722;2023-04-15T09:36:41;3.20;;;2.13;;
26588;SDS011;14235;48.532;8.722;2023-04-15T09:39:17;4.50;;;2.13;;
26588;SDS011;14235;48.532;8.722;2023-04-15T09:41:43;5.05;;;2.03;;
26588;SDS011;14235;48.532;8.722;2023-04-15T09:44:25;5.63;;;2.20;;
26588;SDS011;14235;48.532;8.722;2023-04-15T09:46:51;5.75;;;1.98;;
26588;SDS011;14235;48.532;8.722;2023-04-15T09:49:16;4.05;;;1.90;;
26588;SDS011;14235;48.532;8.722;2023-04-15T09:51:42;4.78;;;2.00;;
26588;SDS011;14235;48.532;8.722;2023-04-15T09:54:08;2.92;;;1.73;;
26588;SDS011;14235;48.532;8.722;2023-04-15T09:56:36;3.33;;;1.40;;
26588;SDS011;14235;48.532;8.722;2023-04-15T09:59:09;2.80;;;1.60;;
26588;SDS011;14235;48.532;8.722;2023-04-15T10:01:35;3.75;;;1.75;;
26588;SDS011;14235;48.532;8.722;2023-04-15T10:04:04;2.70;;;1.60;;
26588;SDS011;14235;48.532;8.722;2023-04-15T10:06:30;3.53;;;1.80;;
26588;SDS011;14235;48.532;8.722;2023-04-15T10:08:57;4.55;;;1.60;;
26588;SDS011;14235;48.532;8.722;2023-04-15T10:11:23;3.42;;;2.75;;
26588;SDS011;14235;48.532;8.722;2023-04-15T10:13:52;5.07;;;1.90;;
26588;SDS011;14235;48.532;8.722;2023-04-15T10:16:20;3.53;;;1.60;;
26588;SDS011;14235;48.532;8.722;2023-04-15T10:18:49;2.33;;;1.65;;
26588;SDS011;14235;48.532;8.722;2023-04-15T10:21:18;3.05;;;1.40;;
26588;SDS011;14235;48.532;8.722;2023-04-15T10:23:47;5.25;;;1.83;;
26588;SDS011;14235;48.532;8.722;2023-04-15T10:26:14;1.67;;;1.58;;
26588;SDS011;14235;48.532;8.722;2023-04-15T10:28:42;2.65;;;1.50;;
26588;SDS011;14235;48.532;8.722;2023-04-15T10:31:08;2.55;;;1.35;;
26588;SDS011;14235;48.532;8.722;2023-04-15T10:33:37;13.60;;;2.30;;
26588;SDS011;14235;48.532;8.722;2023-04-15T10:36:04;6.20;;;1.95;;
26588;SDS011;14235;48.532;8.722;2023-04-15T10:38:41;2.40;;;1.50;;
26588;SDS011;14235;48.532;8.722;2023-04-15T10:43:50;3.03;;;1.45;;
26588;SDS011;14235;48.532;8.722;2023-04-15T10:46:18;2.40;;;1.50;;
26588;SDS011;14235;48.532;8.722;2023-04-15T10:49:45;1.42;;;1.10;;
26588;SDS011;14235;48.532;8.722;2023-04-15T10:51:52;3.92;;;1.20;;
26588;SDS011;14235;48.532;8.722;2023-04-15T10:56:50;3.67;;;1.60;;
26588;SDS011;14235;48.532;8.722;2023-04-15T10:59:31;1.63;;;1.25;;
26588;SDS011;14235;48.532;8.722;2023-04-15T11:02:01;3.65;;;1.30;;
26588;SDS011;14235;48.532;8.722;2023-04-15T11:12:38;1.50;;;1.35;;
26588;SDS011;14235;48.532;8.722;2023-04-15T11:17:48;1.70;;;1.30;;
26588;SDS011;14235;48.532;8.722;2023-04-15T11:20:15;3.22;;;1.75;;
26588;SDS011;14235;48.532;8.722;2023-04-15T11:22:49;3.28;;;1.30;;
26588;SDS011;14235;48.532;8.722;2023-04-15T11:25:24;2.30;;;1.50;;
26588;SDS011;14235;48.532;8.722;2023-04-15T11:27:54;2.13;;;1.33;;
26588;SDS011;14235;48.532;8.722;2023-04-15T11:30:21;3.47;;;1.65;;
26588;SDS011;14235;48.532;8.722;2023-04-15T11:32:49;2.13;;;1.50;;
26588;SDS011;14235;48.532;8.722;2023-04-15T11:35:15;2.08;;;1.48;;
26588;SDS011;14235;48.532;8.722;2023-04-15T11:37:42;2.58;;;1.52;;
26588;SDS011;14235;48.532;8.722;2023-04-15T11:40:12;1.23;;;1.10;;
26588;SDS011;14235;48.532;8.722;2023-04-15T11:42:39;1.90;;;1.15;;
26588;SDS011;14235;48.532;8.722;2023-04-15T11:45:08;2.30;;;1.50;;
26588;SDS011;14235;48.532;8.722;2023-04-15T11:47:35;1.75;;;1.20;;
26588;SDS011;14235;48.532;8.722;2023-04-15T11:52:56;2.22;;;1.52;;
26588;SDS011;14235;48.532;8.722;2023-04-15T11:55:27;2.25;;;1.52;;
26588;SDS011;14235;48.532;8.722;2023-04-15T11:58:09;1.63;;;1.33;;
26588;SDS011;14235;48.532;8.722;2023-04-15T12:00:47;3.42;;;1.65;;
26588;SDS011;14235;48.532;8.722;2023-04-15T12:03:14;2.25;;;1.50;;
26588;SDS011;14235;48.532;8.722;2023-04-15T12:06:04;4.13;;;1.30;;
26588;SDS011;14235;48.532;8.722;2023-04-15T12:16:40;3.10;;;1.40;;
26588;SDS011;14235;48.532;8.722;2023-04-15T12:19:12;3.28;;;1.92;;
26588;SDS011;14235;48.532;8.722;2023-04-15T12:21:40;3.33;;;1.60;;
26588;SDS011;14235;48.532;8.722;2023-04-15T12:24:09;2.75;;;1.67;;
26588;SDS011;14235;48.532;8.722;2023-04-15T12:29:07;2.55;;;1.75;;
26588;SDS011;14235;48.532;8.722;2023-04-15T12:31:34;4.22;;;2.03;;
26588;SDS011;14235;48.532;8.722;2023-04-15T12:34:01;2.13;;;1.90;;
26588;SDS011;14235;48.532;8.722;2023-04-15T12:36:28;5.20;;;1.80;;
26588;SDS011;14235;48.532;8.722;2023-04-15T12:39:00;3.03;;;1.67;;
26588;SDS011;14235;48.532;8.722;2023-04-15T12:41:26;1.83;;;1.30;;
26588;SDS011;14235;48.532;8.722;2023-04-15T12:43:51;2.38;;;1.77;;
26588;SDS011;14235;48.532;8.722;2023-04-15T12:46:17;4.20;;;1.90;;
26588;SDS011;14235;48.532;8.722;2023-04-15T12:48:44;1.50;;;1.35;;
26588;SDS011;14235;48.532;8.722;2023-04-15T12:51:10;2.45;;;1.60;;
26588;SDS011;14235;48.532;8.722;2023-04-15T12:53:35;2.88;;;1.95;;
26588;SDS011;14235;48.532;8.722;2023-04-15T12:56:01;2.47;;;1.90;;
26588;SDS011;14235;48.532;8.722;2023-04-15T12:58:27;2.20;;;2.00;;
26588;SDS011;14235;48.532;8.722;2023-04-15T13:00:52;1.77;;;1.60;;
26588;SDS011;14235;48.532;8.722;2023-04-15T13:03:18;3.88;;;2.05;;
26588;SDS011;14235;48.532;8.722;2023-04-15T13:05:43;2.08;;;1.52;;
26588;SDS011;14235;48.532;8.722;2023-04-15T13:08:09;4.60;;;1.90;;
26588;SDS011;14235;48.532;8.722;2023-04-15T13:10:35;4.03;;;1.85;;
26588;SDS011;14235;48.532;8.722;2023-04-15T13:13:01;2.67;;;1.92;;
26588;SDS011;14235;48.532;8.722;2023-04-15T13:15:27;3.58;;;1.67;;
26588;SDS011;14235;48.532;8.722;2023-04-15T13:17:53;2.72;;;1.80;;
26588;SDS011;14235;48.532;8.722;2023-04-15T13:20:18;4.05;;;1.90;;
26588;SDS011;14235;48.532;8.722;2023-04-15T13:22:44;2.75;;;2.28;;
26588;SDS011;14235;48.532;8.722;2023-04-15T13:25:10;5.13;;;2.10;;
26588;SDS011;14235;48.532;8.722;2023-04-15T13:27:36;4.72;;;2.22;;
26588;SDS011;14235;48.532;8.722;2023-04-15T13:30:02;5.80;;;2.47;;
26588;SDS011;14235;48.532;8.722;2023-04-15T13:32:29;3.15;;;2.05;;
26588;SDS011;14235;48.532;8.722;2023-04-15T13:34:55;3.08;;;2.45;;
26588;SDS011;14235;48.532;8.722;2023-04-15T13:37:24;6.15;;;2.40;;
26588;SDS011;14235;48.532;8.722;2023-04-15T13:39:51;2.92;;;2.70;;
26588;SDS011;14235;48.532;8.722;2023-04-15T13:42:17;9.27;;;2.67;;
26588;SDS011;14235;48.532;8.722;2023-04-15T13:44:43;3.40;;;2.47;;
26588;SDS011;14235;48.532;8.722;2023-04-15T13:47:08;4.00;;;2.40;;
26588;SDS011;14235;48.532;8.722;2023-04-15T13:49:34;3.05;;;2.40;;
26588;SDS011;14235;48.532;8.722;2023-04-15T13:51:59;3.08;;;2.40;;
26588;SDS011;14235;48.532;8.722;2023-04-15T13:54:25;4.50;;;2.40;;
26588;SDS011;14235;48.532;8.722;2023-04-15T13:56:51;3.72;;;2.45;;
26588;SDS011;14235;48.532;8.722;2023-04-15T13:59:16;8.43;;;2.90;;
26588;SDS011;14235;48.532;8.722;2023-04-15T14:01:42;3.80;;;2.47;;
26588;SDS011;14235;48.532;8.722;2023-04-15T14:04:08;3.90;;;2.40;;
26588;SDS011;14235;48.532;8.722;2023-04-15T14:06:34;4.97;;;2.40;;
26588;SDS011;14235;48.532;8.722;2023-04-15T14:08:59;6.18;;;2.28;;
26588;SDS011;14235;48.532;8.722;2023-04-15T14:11:25;3.88;;;2.00;;
26588;SDS011;14235;48.532;8.722;2023-04-15T14:13:51;3.00;;;2.78;;
26588;SDS011;14235;48.532;8.722;2023-04-15T14:16:17;3.20;;;2.58;;
26588;SDS011;14235;48.532;8.722;2023-04-15T14:18:43;2.60;;;2.08;;
26588;SDS011;14235;48.532;8.722;2023-04-15T14:21:08;3.03;;;2.03;;
26588;SDS011;14235;48.532;8.722;2023-04-15T14:23:34;4.50;;;2.17;;
26588;SDS011;14235;48.532;8.722;2023-04-15T14:26:00;2.58;;;2.20;;
26588;SDS011;14235;48.532;8.722;2023-04-15T14:28:25;3.03;;;1.90;;
26588;SDS011;14235;48.532;8.722;2023-04-15T14:30:51;2.88;;;2.10;;
26588;SDS011;14235;48.532;8.722;2023-04-15T14:33:17;2.80;;;2.30;;
26588;SDS011;14235;48.532;8.722;2023-04-15T14:35:43;3.20;;;2.50;;
26588;SDS011;14235;48.532;8.722;2023-04-15T14:38:08;3.65;;;2.80;;
26588;SDS011;14235;48.532;8.722;2023-04-15T14:40:35;4.05;;;2.60;;
26588;SDS011;14235;48.532;8.722;2023-04-15T14:43:01;4.50;;;2.90;;
26588;SDS011;14235;48.532;8.722;2023-04-15T14:45:27;2.60;;;2.45;;
26588;SDS011;14235;48.532;8.722;2023-04-15T14:47:53;3.40;;;2.60;;
26588;SDS011;14235;48.532;8.722;2023-04-15T14:50:19;3.83;;;2.90;;
26588;SDS011;14235;48.532;8.722;2023-04-15T14:52:45;3.17;;;2.50;;
26588;SDS011;14235;48.532;8.722;2023-04-15T14:55:11;4.32;;;3.30;;
26588;SDS011;14235;48.532;8.722;2023-04-15T14:57:38;3.20;;;2.90;;
26588;SDS011;14235;48.532;8.722;2023-04-15T15:00:05;2.50;;;2.30;;
26588;SDS011;14235;48.532;8.722;2023-04-15T15:02:32;4.68;;;2.83;;
26588;SDS011;14235;48.532;8.722;2023-04-15T15:04:59;3.20;;;2.50;;
26588;SDS011;14235;48.532;8.722;2023-04-15T15:07:25;2.60;;;2.40;;
26588;SDS011;14235;48.532;8.722;2023-04-15T15:09:51;2.70;;;2.22;;
26588;SDS011;14235;48.532;8.722;2023-04-15T15:12:17;2.72;;;2.15;;
26588;SDS011;14235;48.532;8.722;2023-04-15T15:14:43;4.22;;;2.65;;
26588;SDS011;14235;48.532;8.722;2023-04-15T15:17:09;3.10;;;2.33;;